Terminal Aerodrome Forecast
Issued by NWS

Home | Current Version | Previous Version | Text Only | Print | Product List | Glossary On
Versions: 1 2 3 4 5 6 7 8 9 10 11 12 13 14 15
000
FTUS43 KSGF 231700 RRA
TAFJLN
TAF
KJLN 231741Z 2318/2418 29007KT P6SM OVC200
     FM240000 32007KT P6SM SCT050 OVC100
     FM240900 32010KT 6SM -SN BR OVC020
     FM241500 32012KT 6SM BR OVC015=

USA.gov is the U.S. government's official web portal to all federal, state and local government web resources and services.